createdAt,value
2023-04-13T00:04:22.447Z,37.36
2023-04-13T00:09:24.574Z,38.06
2023-04-13T00:14:26.497Z,38.28
2023-04-13T00:19:28.386Z,38.51
2023-04-13T00:24:30.237Z,38.89
2023-04-13T00:29:32.153Z,39.08
2023-04-13T00:34:34.036Z,39.41
2023-04-13T00:39:35.901Z,39.31
2023-04-13T00:44:37.851Z,39.65
2023-04-13T00:49:39.672Z,39.84
2023-04-13T00:54:41.507Z,39.72
2023-04-13T00:59:43.471Z,40.11
2023-04-13T01:04:45.409Z,40.03
2023-04-13T01:10:34.212Z,40.79
2023-04-13T01:15:37.594Z,40.62
2023-04-13T01:20:41.300Z,40.79
2023-04-13T01:25:56.198Z,40.93
2023-04-13T01:30:58.099Z,40.99
2023-04-13T01:36:00.145Z,41.12
2023-04-13T01:41:02.099Z,41.12
2023-04-13T01:46:13.500Z,41.41
2023-04-13T01:51:27.838Z,41.84
2023-04-13T01:56:29.841Z,41.56
2023-04-13T02:01:31.693Z,41.61
2023-04-13T02:06:33.790Z,42.03
2023-04-13T02:11:35.883Z,42.07
2023-04-13T02:16:37.785Z,42.25
2023-04-13T02:21:39.765Z,42.12
2023-04-13T02:26:41.601Z,42.28
2023-04-13T02:31:43.580Z,42.24
2023-04-13T02:36:45.476Z,42.47
2023-04-13T02:41:47.332Z,42.33
2023-04-13T02:46:49.222Z,42.42
2023-04-13T02:51:51.038Z,42.51
2023-04-13T02:56:53.034Z,42.13
2023-04-13T03:01:55.083Z,42.04
2023-04-13T03:06:56.998Z,42.61
2023-04-13T03:11:58.891Z,42.70
2023-04-13T03:17:00.840Z,42.51
2023-04-13T03:22:02.693Z,42.58
2023-04-13T03:27:04.709Z,42.99
2023-04-13T03:32:06.850Z,42.56
2023-04-13T03:37:08.719Z,41.45
2023-04-13T03:42:10.620Z,40.58
2023-04-13T03:47:12.418Z,40.08
2023-04-13T03:52:14.299Z,40.01
2023-04-13T03:57:16.158Z,39.61
2023-04-13T04:02:18.130Z,39.38
2023-04-13T04:07:20.089Z,38.59
2023-04-13T04:12:21.888Z,38.04
2023-04-13T04:17:23.751Z,38.88
2023-04-13T04:22:25.614Z,39.00
2023-04-13T04:27:27.468Z,38.98
2023-04-13T04:32:29.478Z,39.21
2023-04-13T04:37:31.389Z,38.76
2023-04-13T04:42:33.333Z,38.41
2023-04-13T04:47:35.373Z,38.08
2023-04-13T04:52:37.698Z,38.11
2023-04-13T04:57:39.547Z,37.66
2023-04-13T05:02:41.997Z,37.62
2023-04-13T05:07:43.925Z,36.99
2023-04-13T05:12:45.938Z,37.27
2023-04-13T05:17:47.894Z,36.69
2023-04-13T05:22:49.843Z,37.04
2023-04-13T05:27:51.687Z,36.31
2023-04-13T05:32:53.599Z,36.40
2023-04-13T05:37:57.065Z,35.73
2023-04-13T05:42:59.113Z,33.99
2023-04-13T05:48:01.163Z,33.36
2023-04-13T05:53:03.232Z,32.42
2023-04-13T05:58:05.040Z,30.71
2023-04-13T06:03:07.463Z,29.67
2023-04-13T06:08:09.530Z,28.49
2023-04-13T06:13:11.555Z,29.57
2023-04-13T06:18:15.361Z,29.98
2023-04-13T06:23:17.312Z,28.64
2023-04-13T06:28:19.773Z,26.47
2023-04-13T06:33:21.681Z,24.30
2023-04-13T06:38:23.529Z,22.77
2023-04-13T06:43:29.479Z,21.36
2023-04-13T06:48:31.971Z,22.63
2023-04-13T06:53:34.566Z,23.42
2023-04-13T06:58:36.502Z,23.79
2023-04-13T07:03:38.328Z,25.35
2023-04-13T07:08:40.324Z,24.93
2023-04-13T07:13:42.500Z,24.76
2023-04-13T07:18:44.406Z,24.07
2023-04-13T07:23:46.315Z,25.08
2023-04-13T07:28:48.246Z,21.24
2023-04-13T07:33:50.166Z,21.01
2023-04-13T07:38:51.789Z,22.25
2023-04-13T07:43:53.663Z,21.20
2023-04-13T07:48:55.670Z,20.01
2023-04-13T07:53:57.816Z,23.20
2023-04-13T07:58:59.764Z,24.81
2023-04-13T08:04:02.093Z,25.61
2023-04-13T08:09:04.229Z,25.79
2023-04-13T08:14:06.089Z,26.17
2023-04-13T08:19:07.871Z,26.09
2023-04-13T08:24:09.934Z,26.56
2023-04-13T08:29:11.879Z,26.23
2023-04-13T08:34:13.675Z,26.67
2023-04-13T08:39:15.646Z,26.32
2023-04-13T08:44:17.793Z,26.37
2023-04-13T08:49:20.398Z,26.34
2023-04-13T08:54:22.390Z,26.23
2023-04-13T08:59:25.852Z,26.45
2023-04-13T09:04:27.928Z,26.48
2023-04-13T09:09:29.763Z,26.66
2023-04-13T09:14:31.662Z,25.82
2023-04-13T09:19:33.578Z,26.31
2023-04-13T09:24:41.746Z,26.17
2023-04-13T09:29:49.434Z,25.86
2023-04-13T09:35:04.542Z,26.61
2023-04-13T09:40:15.852Z,26.58
2023-04-13T09:45:17.839Z,26.18
2023-04-13T09:50:23.907Z,26.14
2023-04-13T09:55:25.882Z,26.42
2023-04-13T10:00:27.741Z,26.33
2023-04-13T10:05:29.647Z,26.28
2023-04-13T10:10:31.588Z,26.29
2023-04-13T10:16:04.187Z,26.30
2023-04-13T10:21:06.266Z,25.92
2023-04-13T10:26:08.204Z,25.65
2023-04-13T10:31:12.019Z,25.39
2023-04-13T10:36:14.326Z,26.02
2023-04-13T10:41:25.922Z,25.69
2023-04-13T10:46:27.960Z,25.59
2023-04-13T10:51:40.067Z,25.31
2023-04-13T10:56:41.971Z,24.92
2023-04-13T11:01:43.889Z,25.10
2023-04-13T11:06:45.720Z,24.87
2023-04-13T11:11:51.714Z,24.97
2023-04-13T11:16:58.434Z,24.91
2023-04-13T11:22:00.721Z,24.78
2023-04-13T11:27:02.687Z,24.92
2023-04-13T11:32:04.844Z,25.04
2023-04-13T11:37:06.820Z,25.23
2023-04-13T11:42:08.660Z,25.13
2023-04-13T11:47:10.628Z,24.94
2023-04-13T11:52:12.522Z,25.03
2023-04-13T11:57:14.451Z,24.77
2023-04-13T12:02:21.873Z,24.52
2023-04-13T12:07:25.626Z,24.07
2023-04-13T12:22:52.559Z,24.05
2023-04-13T12:28:01.669Z,24.27
2023-04-13T12:33:03.790Z,24.22
2023-04-13T12:38:05.759Z,24.64
2023-04-13T12:43:07.638Z,24.81
2023-04-13T12:48:09.638Z,25.15
2023-04-13T12:53:11.685Z,24.94
2023-04-13T12:58:13.602Z,24.68
2023-04-13T13:03:15.711Z,24.62
2023-04-13T13:08:17.897Z,24.61
2023-04-13T13:13:19.922Z,24.37
2023-04-13T13:18:22.010Z,24.52
2023-04-13T13:23:23.975Z,24.45
2023-04-13T13:28:25.880Z,23.99
2023-04-13T13:33:27.773Z,24.27
2023-04-13T13:38:29.682Z,24.89
2023-04-13T13:43:31.585Z,25.17
2023-04-13T13:48:33.743Z,25.06
2023-04-13T13:53:35.477Z,25.46
2023-04-13T13:58:37.332Z,25.80
2023-04-13T14:03:39.394Z,25.86
2023-04-13T14:08:41.490Z,26.07
2023-04-13T14:13:43.926Z,25.98
2023-04-13T14:18:47.914Z,26.04
2023-04-13T14:23:50.892Z,26.05
2023-04-13T14:28:52.773Z,26.34
2023-04-13T14:33:54.893Z,26.51
2023-04-13T14:38:56.856Z,27.57
2023-04-13T14:43:58.821Z,27.77
2023-04-13T14:49:00.994Z,27.78
2023-04-13T14:54:03.445Z,28.16
2023-04-13T14:59:05.232Z,27.93
2023-04-13T15:04:07.483Z,28.65
2023-04-13T15:09:09.415Z,28.69
2023-04-13T15:14:11.386Z,29.15
2023-04-13T15:19:13.494Z,29.13
2023-04-13T15:24:16.804Z,29.18
2023-04-13T15:29:18.670Z,29.65
2023-04-13T15:34:20.548Z,29.77
2023-04-13T15:39:22.468Z,29.84
2023-04-13T15:44:25.004Z,30.10
2023-04-13T15:49:26.636Z,30.16
2023-04-13T15:54:28.524Z,30.35
2023-04-13T15:59:30.462Z,30.72
2023-04-13T16:04:32.652Z,31.00
2023-04-13T16:09:34.729Z,31.60
2023-04-13T16:14:36.661Z,31.44
2023-04-13T16:19:38.501Z,31.65
2023-04-13T16:24:40.327Z,31.81
2023-04-13T16:29:42.102Z,32.07
2023-04-13T16:34:44.021Z,32.74
2023-04-13T16:39:45.936Z,32.61
2023-04-13T16:44:47.858Z,32.92
2023-04-13T16:49:50.084Z,33.03
2023-04-13T16:54:52.133Z,33.13
2023-04-13T16:59:54.049Z,33.16
2023-04-13T17:04:55.930Z,33.23
2023-04-13T17:09:57.948Z,33.37
2023-04-13T17:14:59.962Z,33.80
2023-04-13T17:20:01.941Z,34.02
2023-04-13T17:25:04.159Z,33.76
2023-04-13T17:30:07.068Z,34.01
2023-04-13T17:35:09.252Z,34.13
2023-04-13T17:40:11.594Z,34.30
2023-04-13T17:45:13.481Z,34.61
2023-04-13T17:50:15.397Z,34.68
2023-04-13T17:55:17.352Z,35.09
2023-04-13T18:00:20.190Z,35.24
2023-04-13T18:05:22.049Z,35.90
2023-04-13T18:10:23.890Z,36.11
2023-04-13T18:15:25.876Z,36.43
2023-04-13T18:20:27.663Z,36.29
2023-04-13T18:25:29.491Z,36.67
2023-04-13T18:30:31.494Z,36.66
2023-04-13T18:35:33.480Z,37.04
2023-04-13T18:40:35.558Z,36.99
2023-04-13T18:45:37.883Z,37.22
2023-04-13T18:50:39.912Z,37.47
2023-04-13T18:55:42.695Z,37.55
2023-04-13T19:00:45.726Z,37.84
2023-04-13T19:05:47.659Z,37.86
2023-04-13T19:10:49.554Z,37.88
2023-04-13T19:15:51.471Z,37.93
2023-04-13T19:20:53.445Z,38.19
2023-04-13T19:26:44.911Z,38.12
2023-04-13T19:31:58.920Z,38.48
2023-04-13T19:37:00.778Z,38.54
2023-04-13T19:42:02.638Z,38.81
2023-04-13T19:47:04.569Z,38.88
2023-04-13T19:52:06.482Z,39.64
2023-04-13T19:57:08.382Z,39.49
2023-04-13T20:02:10.312Z,39.65
2023-04-13T20:07:12.323Z,39.75
2023-04-13T20:12:14.167Z,39.78
2023-04-13T20:17:16.036Z,39.41
2023-04-13T20:22:17.924Z,39.37
2023-04-13T20:27:20.006Z,38.92
2023-04-13T20:32:21.899Z,38.83
2023-04-13T20:37:23.840Z,38.82
2023-04-13T20:42:25.855Z,38.97
2023-04-13T20:47:28.277Z,38.65
2023-04-13T20:52:30.241Z,38.20
2023-04-13T20:57:32.120Z,38.49
2023-04-13T21:02:34.310Z,37.83
2023-04-13T21:07:37.180Z,37.96
2023-04-13T21:12:38.792Z,37.79
2023-04-13T21:17:40.786Z,38.03
2023-04-13T21:22:42.750Z,37.33
2023-04-13T21:27:44.636Z,37.10
2023-04-13T21:32:46.568Z,37.08
2023-04-13T21:37:48.476Z,37.17
2023-04-13T21:42:50.488Z,36.82
2023-04-13T21:47:52.317Z,37.19
2023-04-13T21:52:54.281Z,37.07
2023-04-13T21:57:56.244Z,36.83
2023-04-13T22:02:58.256Z,37.53
2023-04-13T22:08:00.215Z,37.24
2023-04-13T22:13:02.040Z,37.73
2023-04-13T22:18:04.171Z,37.37
2023-04-13T22:23:06.078Z,37.49
2023-04-13T22:28:08.021Z,37.79
2023-04-13T22:33:10.001Z,38.32
2023-04-13T22:38:11.881Z,37.93
2023-04-13T22:43:13.780Z,38.48
2023-04-13T22:48:15.739Z,39.31
2023-04-13T22:53:17.683Z,39.68
2023-04-13T22:58:19.599Z,40.02
2023-04-13T23:03:21.697Z,40.42
2023-04-13T23:08:23.789Z,40.98
2023-04-13T23:13:25.683Z,41.20
2023-04-13T23:18:27.605Z,40.96
2023-04-13T23:23:29.493Z,41.27
2023-04-13T23:28:31.470Z,41.95
2023-04-13T23:33:34.176Z,42.64
2023-04-13T23:38:35.954Z,42.39
2023-04-13T23:43:37.784Z,42.93
2023-04-13T23:48:39.689Z,43.18
2023-04-13T23:53:41.572Z,43.71
2023-04-13T23:58:43.551Z,44.01
